Time;durP1;ratioP1;P1;durP2;ratioP2;P2;SDS_P1;SDS_P2;PMS_P1;PMS_P2;Temp;Humidity;BMP_temperature;BMP_pressure;BME280_temperature;BME280_humidity;BME280_pressure;Samples;Min_cycle;Max_cycle;Signal;HPM_P1;HPM_P2
2021/08/31 00:02:25;;;;;;;71.60;35.65;;;;;;;;;;5071678;28;20088;-61
2021/08/31 00:05:11;;;;;;;71.25;36.50;;;;;;;;;;5071366;28;20181;-61
2021/08/31 00:07:56;;;;;;;61.65;33.05;;;;;;;;;;5071418;28;20119;-61
2021/08/31 00:10:42;;;;;;;62.03;34.78;;;;;;;;;;5071659;28;20056;-61
2021/08/31 00:13:27;;;;;;;67.03;34.83;;;;;;;;;;5075060;28;20048;-61
2021/08/31 00:16:12;;;;;;;62.17;35.47;;;;;;;;;;5075103;28;20124;-62
2021/08/31 00:18:58;;;;;;;62.15;33.45;;;;;;;;;;5075148;28;20052;-62
2021/08/31 00:21:44;;;;;;;68.25;34.75;;;;;;;;;;5075983;28;20056;-61
2021/08/31 00:24:29;;;;;;;72.13;36.60;;;;;;;;;;5074881;28;20056;-61
2021/08/31 00:27:15;;;;;;;66.95;34.15;;;;;;;;;;5075005;28;20078;-61
2021/08/31 00:30:00;;;;;;;61.58;32.88;;;;;;;;;;5074858;28;20052;-61
2021/08/31 00:32:45;;;;;;;57.60;31.65;;;;;;;;;;5074839;28;20053;-61
2021/08/31 00:35:31;;;;;;;53.40;30.48;;;;;;;;;;5074797;28;20115;-62
2021/08/31 00:38:16;;;;;;;64.15;32.00;;;;;;;;;;5074780;28;20052;-61
2021/08/31 00:41:01;;;;;;;58.15;31.30;;;;;;;;;;5074740;28;20580;-61
2021/08/31 00:43:47;;;;;;;61.05;33.95;;;;;;;;;;5074340;28;20541;-61
2021/08/31 00:46:32;;;;;;;60.58;31.65;;;;;;;;;;5074701;28;20060;-62
2021/08/31 00:49:18;;;;;;;67.72;33.72;;;;;;;;;;5074324;28;20429;-62
2021/08/31 00:52:03;;;;;;;67.40;33.45;;;;;;;;;;5074698;28;20052;-61
2021/08/31 00:54:49;;;;;;;61.80;32.55;;;;;;;;;;5074357;28;20053;-62
2021/08/31 00:57:34;;;;;;;68.75;33.92;;;;;;;;;;5073364;28;20049;-61
2021/08/31 01:00:19;;;;;;;68.10;33.17;;;;;;;;;;5074451;28;20049;-61
2021/08/31 01:03:04;;;;;;;85.95;38.08;;;;;;;;;;5074827;28;20056;-62
2021/08/31 01:05:50;;;;;;;72.72;35.05;;;;;;;;;;5075844;28;20064;-62
2021/08/31 01:08:35;;;;;;;68.93;35.00;;;;;;;;;;5075018;28;20048;-62
2021/08/31 01:11:20;;;;;;;64.25;32.22;;;;;;;;;;5074265;28;20049;-62
2021/08/31 01:14:08;;;;;;;65.57;33.85;;;;;;;;;;5073948;28;20048;-61
2021/08/31 01:16:53;;;;;;;67.25;34.05;;;;;;;;;;5074242;28;20084;-61
2021/08/31 01:19:39;;;;;;;60.03;31.83;;;;;;;;;;5074587;28;20084;-63
2021/08/31 01:22:24;;;;;;;66.70;34.33;;;;;;;;;;5074447;28;20053;-62
2021/08/31 01:25:10;;;;;;;60.92;30.92;;;;;;;;;;5073498;28;20512;-61
2021/08/31 01:27:55;;;;;;;69.60;32.45;;;;;;;;;;5074145;28;20048;-62
2021/08/31 01:30:40;;;;;;;65.03;32.10;;;;;;;;;;5073825;28;20120;-61
2021/08/31 01:33:27;;;;;;;60.20;31.17;;;;;;;;;;5073540;28;20048;-62
2021/08/31 01:36:20;;;;;;;57.38;29.83;;;;;;;;;;5073800;28;20048;-64
2021/08/31 01:39:06;;;;;;;66.40;31.33;;;;;;;;;;5073538;28;20123;-64
2021/08/31 01:41:51;;;;;;;56.22;29.65;;;;;;;;;;5073702;28;21216;-65
2021/08/31 01:44:36;;;;;;;65.22;30.08;;;;;;;;;;5073177;28;20506;-64
2021/08/31 01:47:22;;;;;;;55.88;27.33;;;;;;;;;;5073441;28;20088;-64
2021/08/31 01:50:07;;;;;;;61.55;29.50;;;;;;;;;;5073137;28;20068;-64
2021/08/31 01:52:52;;;;;;;56.97;29.90;;;;;;;;;;5073414;28;20057;-64
2021/08/31 01:55:38;;;;;;;58.88;28.13;;;;;;;;;;5073102;28;20056;-64
2021/08/31 01:58:23;;;;;;;59.75;28.70;;;;;;;;;;5072046;28;20652;-64
2021/08/31 02:01:08;;;;;;;62.65;28.92;;;;;;;;;;5073324;28;20048;-64
2021/08/31 02:03:53;;;;;;;65.97;31.95;;;;;;;;;;5072898;28;20052;-64
2021/08/31 02:06:38;;;;;;;65.85;29.60;;;;;;;;;;5072973;28;20056;-64
2021/08/31 02:09:24;;;;;;;62.47;29.50;;;;;;;;;;5072806;28;20044;-64
2021/08/31 02:12:09;;;;;;;61.75;29.13;;;;;;;;;;5073646;28;20049;-65
2021/08/31 02:14:54;;;;;;;57.15;27.42;;;;;;;;;;5072611;28;20044;-64
2021/08/31 02:17:40;;;;;;;61.75;28.15;;;;;;;;;;5072807;28;20417;-64
2021/08/31 02:20:25;;;;;;;55.38;26.27;;;;;;;;;;5072182;28;20045;-64
2021/08/31 02:23:10;;;;;;;59.08;26.75;;;;;;;;;;5071450;28;20491;-64
2021/08/31 02:25:56;;;;;;;58.17;25.85;;;;;;;;;;5073062;28;20044;-64
2021/08/31 02:28:41;;;;;;;58.13;27.77;;;;;;;;;;5073253;28;20048;-65
2021/08/31 02:31:27;;;;;;;58.15;27.15;;;;;;;;;;5073105;28;20510;-64
2021/08/31 02:34:12;;;;;;;62.47;28.88;;;;;;;;;;5072017;28;20048;-64
2021/08/31 02:36:57;;;;;;;45.17;23.67;;;;;;;;;;5072413;28;20053;-63
2021/08/31 02:39:43;;;;;;;53.30;25.63;;;;;;;;;;5073335;28;20103;-65
2021/08/31 02:42:28;;;;;;;55.28;26.27;;;;;;;;;;5074005;28;20604;-65
2021/08/31 02:45:13;;;;;;;56.20;26.35;;;;;;;;;;5072334;28;20056;-65
2021/08/31 02:47:59;;;;;;;55.85;26.00;;;;;;;;;;5073102;28;20119;-64
2021/08/31 02:50:44;;;;;;;48.65;25.15;;;;;;;;;;5105211;22;20051;-63
2021/08/31 02:53:29;;;;;;;58.25;26.05;;;;;;;;;;5092279;28;20115;-63
2021/08/31 02:56:15;;;;;;;48.53;24.98;;;;;;;;;;5092339;28;20052;-63
2021/08/31 02:59:00;;;;;;;52.17;25.75;;;;;;;;;;5092428;28;20056;-63
2021/08/31 03:02:04;;;;;;;49.92;22.08;;;;;;;;;;5092429;28;20085;-64
2021/08/31 03:04:50;;;;;;;56.45;26.30;;;;;;;;;;5092053;28;20169;-64
2021/08/31 03:07:35;;;;;;;52.75;24.05;;;;;;;;;;5092431;28;20056;-63
2021/08/31 03:10:22;;;;;;;45.80;23.08;;;;;;;;;;5092413;28;20085;-64
2021/08/31 03:13:08;;;;;;;52.95;23.13;;;;;;;;;;5092141;28;20509;-64
2021/08/31 03:15:53;;;;;;;47.30;21.27;;;;;;;;;;5092320;28;20048;-64
2021/08/31 03:18:38;;;;;;;42.50;21.55;;;;;;;;;;5092175;28;20052;-64
2021/08/31 03:21:24;;;;;;;46.83;22.60;;;;;;;;;;5092127;28;20418;-63
2021/08/31 03:24:09;;;;;;;50.67;22.90;;;;;;;;;;5091770;28;20436;-63
2021/08/31 03:26:55;;;;;;;50.25;22.00;;;;;;;;;;5092019;28;20417;-63
2021/08/31 03:29:40;;;;;;;45.33;22.13;;;;;;;;;;5091905;28;20052;-63
2021/08/31 03:32:25;;;;;;;57.42;24.52;;;;;;;;;;5092171;28;20055;-62
2021/08/31 03:35:12;;;;;;;44.05;21.80;;;;;;;;;;5091650;28;20494;-63
2021/08/31 03:37:57;;;;;;;45.03;22.98;;;;;;;;;;5091968;28;20044;-63
2021/08/31 03:40:42;;;;;;;45.95;22.20;;;;;;;;;;5091980;28;20052;-63
2021/08/31 03:43:28;;;;;;;53.78;23.55;;;;;;;;;;5091807;28;20115;-63
2021/08/31 03:46:13;;;;;;;53.78;24.55;;;;;;;;;;5092651;28;20044;-63
2021/08/31 03:48:58;;;;;;;49.42;23.42;;;;;;;;;;5095561;28;20537;-63
2021/08/31 03:51:44;;;;;;;49.22;24.13;;;;;;;;;;5096010;28;20123;-63
2021/08/31 03:54:29;;;;;;;40.63;23.02;;;;;;;;;;5095492;28;20490;-63
2021/08/31 03:57:14;;;;;;;54.38;22.60;;;;;;;;;;5095687;28;20094;-63
2021/08/31 04:00:00;;;;;;;52.33;25.75;;;;;;;;;;5095773;28;20056;-63
2021/08/31 04:02:45;;;;;;;46.85;24.50;;;;;;;;;;5095686;28;20118;-63
2021/08/31 04:05:30;;;;;;;51.95;25.40;;;;;;;;;;5095295;28;20067;-63
2021/08/31 04:08:16;;;;;;;49.40;25.23;;;;;;;;;;5095419;28;20502;-63
2021/08/31 04:11:01;;;;;;;48.72;24.58;;;;;;;;;;5095551;28;20052;-63
2021/08/31 04:13:47;;;;;;;44.85;23.95;;;;;;;;;;5095091;28;20072;-63
2021/08/31 04:16:32;;;;;;;42.63;22.45;;;;;;;;;;5095542;28;20128;-63
2021/08/31 04:19:17;;;;;;;48.63;25.10;;;;;;;;;;5095357;28;20052;-63
2021/08/31 04:22:03;;;;;;;51.72;26.05;;;;;;;;;;5095245;28;20122;-63
2021/08/31 04:24:49;;;;;;;50.20;24.90;;;;;;;;;;5095084;28;20052;-63
2021/08/31 04:27:34;;;;;;;48.72;25.13;;;;;;;;;;5095114;28;20051;-63
2021/08/31 04:30:20;;;;;;;44.90;25.40;;;;;;;;;;5094925;28;20055;-63
2021/08/31 04:33:05;;;;;;;45.10;23.33;;;;;;;;;;5095260;28;20067;-63
2021/08/31 04:35:50;;;;;;;51.78;26.25;;;;;;;;;;5094986;28;20051;-65
2021/08/31 04:38:36;;;;;;;50.67;24.38;;;;;;;;;;5094753;28;20121;-64
2021/08/31 04:41:21;;;;;;;52.38;26.08;;;;;;;;;;5094876;28;20048;-64
2021/08/31 04:44:07;;;;;;;50.30;25.67;;;;;;;;;;5094865;28;20056;-64
2021/08/31 04:46:52;;;;;;;47.20;25.40;;;;;;;;;;5094863;28;20119;-64
2021/08/31 04:49:37;;;;;;;48.13;24.75;;;;;;;;;;5094429;28;20562;-65
2021/08/31 04:52:23;;;;;;;44.75;23.52;;;;;;;;;;5094778;28;20135;-64
2021/08/31 04:55:08;;;;;;;49.85;24.50;;;;;;;;;;5094568;28;20052;-64
2021/08/31 04:57:53;;;;;;;44.88;25.23;;;;;;;;;;5093817;28;20044;-63
2021/08/31 05:00:38;;;;;;;52.15;25.55;;;;;;;;;;5094398;28;20505;-63
2021/08/31 05:03:24;;;;;;;52.05;25.42;;;;;;;;;;5094439;28;20052;-63
2021/08/31 05:06:10;;;;;;;47.33;23.85;;;;;;;;;;5094596;28;20052;-63
2021/08/31 05:08:55;;;;;;;47.75;24.90;;;;;;;;;;5087842;28;20076;-63
2021/08/31 05:11:40;;;;;;;46.45;23.30;;;;;;;;;;5074109;28;20115;-64
2021/08/31 05:14:26;;;;;;;41.42;22.55;;;;;;;;;;5073717;28;20569;-64
2021/08/31 05:17:12;;;;;;;42.67;22.48;;;;;;;;;;5074118;28;20128;-64
2021/08/31 05:19:58;;;;;;;41.22;22.70;;;;;;;;;;5073916;28;20057;-64
2021/08/31 05:22:43;;;;;;;41.42;24.52;;;;;;;;;;5074093;28;20123;-64
2021/08/31 05:25:28;;;;;;;36.95;22.60;;;;;;;;;;5073757;28;20052;-64
2021/08/31 05:28:13;;;;;;;42.40;22.65;;;;;;;;;;5073869;28;20600;-63
2021/08/31 05:30:59;;;;;;;42.03;21.73;;;;;;;;;;5073628;28;20052;-65
2021/08/31 05:33:44;;;;;;;41.75;22.10;;;;;;;;;;5073604;28;20052;-63
2021/08/31 05:36:29;;;;;;;34.97;19.88;;;;;;;;;;5073644;28;20056;-63
2021/08/31 05:39:15;;;;;;;40.10;21.83;;;;;;;;;;5073449;28;20049;-63
2021/08/31 05:42:07;;;;;;;31.48;19.70;;;;;;;;;;5073691;28;20119;-63
2021/08/31 05:44:52;;;;;;;39.67;21.88;;;;;;;;;;5073295;28;20048;-63
2021/08/31 05:47:37;;;;;;;40.03;19.90;;;;;;;;;;5073331;28;20542;-63
2021/08/31 05:50:22;;;;;;;38.83;20.48;;;;;;;;;;5073211;28;20048;-64
2021/08/31 05:53:08;;;;;;;40.03;19.92;;;;;;;;;;5073342;28;20044;-66
2021/08/31 05:55:53;;;;;;;33.58;19.75;;;;;;;;;;5073177;28;20056;-64
2021/08/31 05:58:38;;;;;;;38.03;18.98;;;;;;;;;;5073204;28;20052;-64
2021/08/31 06:01:24;;;;;;;32.78;19.48;;;;;;;;;;5073097;28;20045;-66
2021/08/31 06:04:09;;;;;;;34.45;19.42;;;;;;;;;;5072760;28;20044;-65
2021/08/31 06:06:54;;;;;;;32.45;19.35;;;;;;;;;;5057958;28;20052;-64
2021/08/31 06:09:41;;;;;;;31.55;19.42;;;;;;;;;;5072920;28;20052;-66
2021/08/31 06:12:26;;;;;;;29.00;18.45;;;;;;;;;;5072821;28;20053;-65
2021/08/31 06:15:12;;;;;;;29.00;18.02;;;;;;;;;;5072779;28;20060;-65
2021/08/31 06:17:57;;;;;;;27.35;17.70;;;;;;;;;;5072895;28;20052;-65
2021/08/31 06:20:42;;;;;;;28.33;17.33;;;;;;;;;;5072529;28;20060;-64
2021/08/31 06:23:28;;;;;;;30.42;16.42;;;;;;;;;;5072528;28;20052;-64
2021/08/31 06:26:13;;;;;;;30.40;17.33;;;;;;;;;;5072519;28;20060;-64
2021/08/31 06:28:58;;;;;;;19.33;14.70;;;;;;;;;;5072452;28;20049;-64
2021/08/31 06:31:44;;;;;;;27.10;15.82;;;;;;;;;;5072687;28;20052;-64
2021/08/31 06:34:29;;;;;;;23.17;15.43;;;;;;;;;;5072187;28;20497;-64
2021/08/31 06:37:14;;;;;;;23.52;13.77;;;;;;;;;;5072460;28;20128;-64
2021/08/31 06:40:00;;;;;;;23.00;13.30;;;;;;;;;;5072766;28;20070;-64
2021/08/31 06:42:45;;;;;;;22.42;13.27;;;;;;;;;;5072466;28;20131;-64
2021/08/31 06:45:30;;;;;;;21.17;12.35;;;;;;;;;;5072575;28;20048;-64
2021/08/31 06:48:15;;;;;;;19.13;11.50;;;;;;;;;;5072525;28;20441;-64
2021/08/31 06:51:01;;;;;;;21.27;12.43;;;;;;;;;;5072115;28;20510;-64
2021/08/31 06:53:46;;;;;;;20.73;11.57;;;;;;;;;;5072031;28;20422;-64
2021/08/31 06:56:31;;;;;;;24.10;12.38;;;;;;;;;;5072413;28;20044;-64
2021/08/31 06:59:17;;;;;;;20.35;10.15;;;;;;;;;;5072260;28;20052;-64
2021/08/31 07:02:02;;;;;;;22.30;11.25;;;;;;;;;;5072188;28;20052;-64
2021/08/31 07:04:47;;;;;;;18.40;10.13;;;;;;;;;;5071732;28;20493;-64
2021/08/31 07:07:33;;;;;;;13.73;8.35;;;;;;;;;;5072053;28;20524;-64
2021/08/31 07:10:18;;;;;;;17.38;8.95;;;;;;;;;;5071874;28;20045;-64
2021/08/31 07:13:04;;;;;;;17.02;10.27;;;;;;;;;;5071913;28;20128;-64
2021/08/31 07:15:49;;;;;;;16.05;7.95;;;;;;;;;;5071930;28;20048;-65
2021/08/31 07:18:34;;;;;;;16.30;8.35;;;;;;;;;;5071882;28;20049;-64
2021/08/31 07:21:20;;;;;;;13.70;8.13;;;;;;;;;;5071117;28;20503;-64
2021/08/31 07:24:05;;;;;;;13.88;7.45;;;;;;;;;;5071719;28;20052;-64
2021/08/31 07:26:50;;;;;;;15.20;8.20;;;;;;;;;;5071798;28;20502;-64
2021/08/31 07:29:36;;;;;;;13.30;7.43;;;;;;;;;;5071064;28;20405;-65
2021/08/31 07:32:21;;;;;;;14.38;7.07;;;;;;;;;;5071927;28;20049;-64
2021/08/31 07:35:07;;;;;;;13.45;6.63;;;;;;;;;;5071464;28;20049;-64
2021/08/31 07:37:52;;;;;;;10.95;6.10;;;;;;;;;;5072094;28;20053;-65
2021/08/31 07:40:37;;;;;;;10.60;6.85;;;;;;;;;;5071796;28;20056;-65
2021/08/31 07:43:24;;;;;;;12.98;6.60;;;;;;;;;;5071665;28;20056;-64
2021/08/31 07:46:09;;;;;;;13.85;7.25;;;;;;;;;;5071644;28;20052;-64
2021/08/31 07:48:55;;;;;;;13.35;8.10;;;;;;;;;;5071497;28;20674;-65
2021/08/31 07:51:40;;;;;;;12.13;6.88;;;;;;;;;;5071683;28;20075;-64
2021/08/31 07:54:25;;;;;;;12.75;7.00;;;;;;;;;;5071288;28;20052;-64
2021/08/31 07:57:10;;;;;;;12.27;7.72;;;;;;;;;;5071726;28;20044;-64
2021/08/31 07:59:55;;;;;;;12.25;6.20;;;;;;;;;;5071447;28;20056;-64
2021/08/31 08:02:41;;;;;;;10.38;5.90;;;;;;;;;;5072545;28;20080;-64
2021/08/31 08:05:26;;;;;;;15.00;7.22;;;;;;;;;;5091524;28;20052;-64
2021/08/31 08:08:12;;;;;;;12.23;6.78;;;;;;;;;;5091862;28;20052;-64
2021/08/31 08:10:57;;;;;;;10.90;6.30;;;;;;;;;;5091501;28;20052;-64
2021/08/31 08:13:42;;;;;;;12.23;6.57;;;;;;;;;;5091631;28;20048;-64
2021/08/31 08:16:28;;;;;;;15.00;7.32;;;;;;;;;;5091684;28;20048;-64
2021/08/31 08:19:13;;;;;;;11.65;5.85;;;;;;;;;;5091418;28;20506;-64
2021/08/31 08:21:58;;;;;;;10.75;6.32;;;;;;;;;;5091740;28;20052;-64
2021/08/31 08:24:43;;;;;;;9.38;6.25;;;;;;;;;;5091264;28;20540;-64
2021/08/31 08:27:29;;;;;;;7.93;5.78;;;;;;;;;;5091582;28;20119;-64
2021/08/31 08:30:14;;;;;;;9.25;5.70;;;;;;;;;;5091275;28;20561;-64
2021/08/31 08:32:59;;;;;;;12.65;5.72;;;;;;;;;;5091811;28;20056;-64
2021/08/31 08:35:45;;;;;;;9.07;5.43;;;;;;;;;;5094895;28;20119;-64
2021/08/31 08:38:30;;;;;;;12.75;5.53;;;;;;;;;;5094888;28;20052;-64
2021/08/31 08:41:15;;;;;;;10.98;4.85;;;;;;;;;;5094951;28;20656;-64
2021/08/31 08:44:01;;;;;;;11.60;5.40;;;;;;;;;;5094756;28;20064;-64
2021/08/31 08:46:47;;;;;;;9.07;5.05;;;;;;;;;;5094777;28;20052;-64
2021/08/31 08:49:32;;;;;;;14.30;5.43;;;;;;;;;;5131561;22;20048;-63
2021/08/31 08:52:17;;;;;;;10.68;4.53;;;;;;;;;;5074511;28;20056;-63
2021/08/31 08:55:03;;;;;;;9.55;4.68;;;;;;;;;;5074056;28;20143;-63
2021/08/31 08:57:48;;;;;;;9.13;4.47;;;;;;;;;;5074320;28;20528;-63
2021/08/31 09:00:52;;;;;;;10.68;4.18;;;;;;;;;;5074305;28;20049;-62
2021/08/31 09:03:38;;;;;;;10.00;4.10;;;;;;;;;;5074147;28;20049;-62
2021/08/31 09:06:23;;;;;;;7.95;4.88;;;;;;;;;;5059586;28;20127;-63
2021/08/31 09:09:08;;;;;;;8.98;3.70;;;;;;;;;;5072786;28;20056;-62
2021/08/31 09:11:54;;;;;;;6.55;3.33;;;;;;;;;;5073868;28;20045;-64
2021/08/31 09:14:40;;;;;;;11.07;4.15;;;;;;;;;;5073753;28;20052;-63
2021/08/31 09:17:25;;;;;;;7.57;3.20;;;;;;;;;;5074030;28;20123;-63
2021/08/31 09:20:16;;;;;;;12.60;4.45;;;;;;;;;;5073537;28;20060;-63
2021/08/31 09:23:01;;;;;;;7.43;3.85;;;;;;;;;;5073974;28;20119;-63
2021/08/31 09:25:47;;;;;;;10.75;4.22;;;;;;;;;;5073517;28;20123;-63
2021/08/31 09:28:33;;;;;;;7.35;3.72;;;;;;;;;;5073844;28;20060;-62
2021/08/31 09:31:20;;;;;;;9.63;3.88;;;;;;;;;;5073526;28;20052;-62
2021/08/31 09:34:06;;;;;;;11.93;4.80;;;;;;;;;;5073695;28;20045;-62
2021/08/31 09:36:51;;;;;;;12.73;5.32;;;;;;;;;;5073374;28;20053;-63
2021/08/31 09:39:36;;;;;;;9.63;4.65;;;;;;;;;;5073875;28;20052;-64
2021/08/31 09:42:21;;;;;;;8.70;4.15;;;;;;;;;;5073053;28;20052;-63
2021/08/31 09:45:07;;;;;;;8.82;4.00;;;;;;;;;;5072605;28;20514;-63
2021/08/31 09:47:53;;;;;;;9.07;3.85;;;;;;;;;;5073843;28;20053;-64
2021/08/31 09:50:39;;;;;;;6.72;4.18;;;;;;;;;;5073033;28;20086;-63
2021/08/31 09:53:25;;;;;;;11.82;4.10;;;;;;;;;;5069194;28;20048;-63
2021/08/31 09:56:11;;;;;;;11.05;4.05;;;;;;;;;;5069183;28;20391;-63
2021/08/31 09:58:56;;;;;;;12.73;4.65;;;;;;;;;;5073355;28;20490;-63
2021/08/31 10:01:41;;;;;;;11.15;4.45;;;;;;;;;;5058404;28;20061;-64
2021/08/31 10:04:26;;;;;;;8.40;4.53;;;;;;;;;;5073722;28;20472;-63
2021/08/31 10:07:12;;;;;;;8.40;4.53;;;;;;;;;;5073600;28;20048;-62
2021/08/31 10:09:57;;;;;;;7.45;4.35;;;;;;;;;;5072683;28;20049;-62
2021/08/31 10:12:42;;;;;;;10.05;3.88;;;;;;;;;;5072141;28;20502;-63
2021/08/31 10:15:27;;;;;;;8.88;3.95;;;;;;;;;;5057343;28;20119;-64
2021/08/31 10:18:12;;;;;;;9.13;3.72;;;;;;;;;;5072770;28;20052;-63
2021/08/31 10:21:07;;;;;;;14.68;5.43;;;;;;;;;;5072615;28;20519;-63
2021/08/31 10:23:52;;;;;;;11.48;4.00;;;;;;;;;;5072468;28;20128;-63
2021/08/31 10:26:38;;;;;;;11.07;3.80;;;;;;;;;;5057531;28;20418;-63
2021/08/31 10:29:23;;;;;;;11.35;4.53;;;;;;;;;;5072358;28;20056;-63
2021/08/31 10:32:08;;;;;;;15.65;4.43;;;;;;;;;;5072475;28;20510;-63
2021/08/31 10:34:54;;;;;;;14.35;3.88;;;;;;;;;;5072159;28;20048;-64
2021/08/31 10:37:48;;;;;;;8.65;4.10;;;;;;;;;;5072851;28;20115;-63
2021/08/31 10:40:34;;;;;;;8.57;3.67;;;;;;;;;;5072416;28;20127;-64
2021/08/31 10:43:22;;;;;;;13.38;3.80;;;;;;;;;;5072534;28;20498;-63
2021/08/31 10:46:07;;;;;;;10.73;3.85;;;;;;;;;;5072470;28;20056;-63
2021/08/31 10:49:00;;;;;;;6.45;3.30;;;;;;;;;;5072402;28;20123;-63
2021/08/31 10:52:04;;;;;;;11.18;4.50;;;;;;;;;;5072059;28;20049;-63
2021/08/31 10:54:49;;;;;;;7.95;4.00;;;;;;;;;;5071996;28;20048;-63
2021/08/31 10:57:37;;;;;;;10.07;3.83;;;;;;;;;;5071603;28;20421;-63
2021/08/31 11:00:23;;;;;;;9.60;3.88;;;;;;;;;;5072164;28;20509;-63
2021/08/31 11:03:08;;;;;;;11.15;4.22;;;;;;;;;;5072053;28;20506;-62
2021/08/31 11:05:53;;;;;;;8.02;3.53;;;;;;;;;;5057059;28;20052;-64
2021/08/31 11:08:38;;;;;;;10.77;3.70;;;;;;;;;;5039914;28;20056;-62
2021/08/31 11:11:23;;;;;;;13.82;4.32;;;;;;;;;;5071891;28;20119;-63
2021/08/31 11:14:09;;;;;;;9.52;3.40;;;;;;;;;;5071729;28;20048;-63
2021/08/31 11:16:55;;;;;;;8.90;3.40;;;;;;;;;;5071917;28;20498;-64
2021/08/31 11:19:40;;;;;;;7.45;3.95;;;;;;;;;;5072047;28;20052;-63
2021/08/31 11:22:25;;;;;;;10.93;4.43;;;;;;;;;;5071893;28;20048;-63
2021/08/31 11:25:10;;;;;;;10.68;4.05;;;;;;;;;;5071629;28;20562;-64
2021/08/31 11:27:57;;;;;;;13.82;5.05;;;;;;;;;;5072018;28;20088;-63
2021/08/31 11:30:55;;;;;;;15.85;4.47;;;;;;;;;;5071672;28;20502;-62
2021/08/31 11:33:41;;;;;;;12.77;4.72;;;;;;;;;;5071481;28;20048;-63
2021/08/31 11:36:28;;;;;;;11.77;4.45;;;;;;;;;;5071926;28;20049;-63
2021/08/31 11:39:15;;;;;;;10.35;4.43;;;;;;;;;;5071646;28;20068;-62
2021/08/31 11:42:00;;;;;;;14.23;4.78;;;;;;;;;;5071666;28;20499;-63
2021/08/31 11:45:01;;;;;;;14.73;4.32;;;;;;;;;;5071489;28;20127;-63
2021/08/31 11:47:46;;;;;;;11.73;4.35;;;;;;;;;;5071605;28;20056;-63
2021/08/31 11:50:31;;;;;;;9.43;3.63;;;;;;;;;;5071456;28;20057;-63
2021/08/31 11:53:20;;;;;;;12.32;4.43;;;;;;;;;;5071553;28;20506;-63
2021/08/31 11:56:06;;;;;;;11.60;4.18;;;;;;;;;;5072006;28;20494;-63
2021/08/31 11:58:51;;;;;;;12.80;3.72;;;;;;;;;;5071597;28;20056;-63
2021/08/31 12:01:37;;;;;;;11.90;3.75;;;;;;;;;;5071663;28;20057;-64
2021/08/31 12:04:24;;;;;;;9.27;3.65;;;;;;;;;;5071234;28;20502;-64
2021/08/31 12:07:10;;;;;;;11.18;4.57;;;;;;;;;;5072265;28;20060;-63
2021/08/31 12:09:55;;;;;;;15.35;4.53;;;;;;;;;;5060304;28;20049;-64
2021/08/31 12:12:43;;;;;;;12.15;4.32;;;;;;;;;;5075201;28;20056;-63
2021/08/31 12:15:28;;;;;;;12.77;3.70;;;;;;;;;;5075118;28;20123;-63
2021/08/31 12:18:13;;;;;;;8.80;3.17;;;;;;;;;;5060238;28;20048;-63
2021/08/31 12:21:18;;;;;;;11.75;3.67;;;;;;;;;;5060307;28;20091;-63
2021/08/31 12:24:11;;;;;;;14.13;3.92;;;;;;;;;;5075186;28;20422;-64
2021/08/31 12:27:05;;;;;;;12.90;4.25;;;;;;;;;;5075084;28;20453;-63
2021/08/31 12:29:51;;;;;;;9.32;3.55;;;;;;;;;;5074924;28;20049;-63
2021/08/31 12:32:37;;;;;;;13.18;3.20;;;;;;;;;;5074967;28;20049;-63
2021/08/31 12:35:27;;;;;;;12.45;4.45;;;;;;;;;;5074628;28;20048;-63
2021/08/31 12:38:19;;;;;;;9.77;3.30;;;;;;;;;;5074954;28;20049;-63
2021/08/31 12:41:07;;;;;;;13.95;3.92;;;;;;;;;;5074770;28;20056;-63
2021/08/31 12:43:55;;;;;;;10.32;3.72;;;;;;;;;;5074407;28;20056;-63
2021/08/31 12:46:41;;;;;;;9.77;2.90;;;;;;;;;;5074738;28;20052;-64
2021/08/31 12:49:26;;;;;;;12.52;4.07;;;;;;;;;;5074487;28;20123;-63
2021/08/31 12:52:16;;;;;;;10.40;3.75;;;;;;;;;;5059423;28;20542;-64
2021/08/31 12:55:14;;;;;;;13.27;4.13;;;;;;;;;;5074380;28;20060;-63
2021/08/31 12:58:18;;;;;;;13.48;3.80;;;;;;;;;;5074400;28;20044;-63
2021/08/31 13:01:14;;;;;;;9.07;3.47;;;;;;;;;;5074456;28;20053;-63
2021/08/31 13:04:00;;;;;;;11.55;3.20;;;;;;;;;;5074208;28;20087;-64
2021/08/31 13:06:48;;;;;;;12.63;3.55;;;;;;;;;;5074144;28;20506;-64
2021/08/31 13:09:33;;;;;;;13.02;3.67;;;;;;;;;;5074290;28;20106;-65
2021/08/31 13:12:19;;;;;;;17.58;4.07;;;;;;;;;;5074288;28;20064;-63
2021/08/31 13:15:04;;;;;;;12.43;3.72;;;;;;;;;;5073824;28;20056;-64
2021/08/31 13:17:49;;;;;;;13.50;3.67;;;;;;;;;;5074199;28;20049;-64
2021/08/31 13:20:35;;;;;;;15.25;3.60;;;;;;;;;;5073088;28;20495;-64
2021/08/31 13:23:20;;;;;;;12.60;3.90;;;;;;;;;;5074110;28;20474;-64
2021/08/31 13:26:07;;;;;;;11.70;3.50;;;;;;;;;;5073928;28;20494;-64
2021/08/31 13:28:53;;;;;;;16.58;4.05;;;;;;;;;;5073955;28;20052;-63
2021/08/31 13:31:38;;;;;;;11.57;4.25;;;;;;;;;;5073726;28;20048;-63
2021/08/31 13:34:24;;;;;;;9.02;3.05;;;;;;;;;;5073611;28;20115;-63
2021/08/31 13:37:09;;;;;;;13.10;3.22;;;;;;;;;;5073795;28;20123;-64
2021/08/31 13:39:54;;;;;;;15.05;4.20;;;;;;;;;;5073526;28;20052;-64
2021/08/31 13:42:40;;;;;;;15.90;3.88;;;;;;;;;;5073686;28;20446;-64
2021/08/31 13:45:25;;;;;;;15.93;4.00;;;;;;;;;;5073202;28;20510;-63
2021/08/31 13:48:10;;;;;;;10.32;3.85;;;;;;;;;;5073473;28;20119;-63
2021/08/31 13:50:56;;;;;;;15.02;4.13;;;;;;;;;;5072969;28;20044;-63
2021/08/31 13:53:41;;;;;;;16.80;4.07;;;;;;;;;;5073384;28;20116;-63
2021/08/31 13:56:26;;;;;;;9.60;3.47;;;;;;;;;;5073168;28;20565;-63
2021/08/31 13:59:12;;;;;;;12.15;3.58;;;;;;;;;;5073038;28;20052;-63
2021/08/31 14:01:57;;;;;;;12.15;3.38;;;;;;;;;;5073247;28;20053;-64
2021/08/31 14:04:42;;;;;;;25.10;4.85;;;;;;;;;;5072827;28;20450;-64
2021/08/31 14:07:27;;;;;;;10.63;3.28;;;;;;;;;;5072919;28;20056;-64
2021/08/31 14:10:13;;;;;;;12.57;4.03;;;;;;;;;;5072919;28;20048;-63
2021/08/31 14:12:59;;;;;;;12.48;3.65;;;;;;;;;;5072789;28;20553;-63
2021/08/31 14:15:46;;;;;;;9.00;3.53;;;;;;;;;;5072555;28;20052;-63
2021/08/31 14:18:31;;;;;;;14.60;3.05;;;;;;;;;;5072730;28;20052;-64
2021/08/31 14:21:18;;;;;;;9.07;3.42;;;;;;;;;;5072771;28;20410;-65
2021/08/31 14:24:04;;;;;;;10.13;3.53;;;;;;;;;;5072552;28;20499;-64
2021/08/31 14:26:50;;;;;;;11.65;3.55;;;;;;;;;;5072640;28;20048;-64
2021/08/31 14:29:35;;;;;;;8.18;3.20;;;;;;;;;;5072561;28;20056;-64
2021/08/31 14:32:20;;;;;;;18.45;3.95;;;;;;;;;;5072499;28;20044;-65
2021/08/31 14:35:06;;;;;;;12.40;3.40;;;;;;;;;;5072507;28;20119;-64
2021/08/31 14:37:52;;;;;;;13.70;4.30;;;;;;;;;;5072574;28;20044;-64
2021/08/31 14:40:37;;;;;;;13.45;3.33;;;;;;;;;;5072514;28;20052;-64
2021/08/31 14:43:22;;;;;;;19.00;4.65;;;;;;;;;;5072399;28;20426;-63
2021/08/31 14:46:07;;;;;;;10.40;3.33;;;;;;;;;;5072403;28;20049;-63
2021/08/31 14:48:53;;;;;;;14.90;3.92;;;;;;;;;;5071755;28;20048;-64
2021/08/31 14:51:38;;;;;;;10.82;3.13;;;;;;;;;;5087770;22;20135;-63
2021/08/31 14:54:23;;;;;;;28.08;5.05;;;;;;;;;;5071895;28;20064;-64
2021/08/31 14:57:09;;;;;;;13.57;4.30;;;;;;;;;;5072136;28;20116;-64
2021/08/31 14:59:55;;;;;;;11.73;3.70;;;;;;;;;;5076218;28;20143;-64
2021/08/31 15:02:40;;;;;;;13.65;3.83;;;;;;;;;;5092353;28;20052;-64
2021/08/31 15:05:25;;;;;;;9.57;3.55;;;;;;;;;;5091915;28;20421;-63
2021/08/31 15:08:11;;;;;;;13.75;4.28;;;;;;;;;;5077011;28;20052;-64
2021/08/31 15:10:56;;;;;;;12.35;4.18;;;;;;;;;;5092229;28;20051;-65
2021/08/31 15:13:41;;;;;;;11.20;3.13;;;;;;;;;;5091966;28;20123;-64
2021/08/31 15:16:26;;;;;;;14.93;4.00;;;;;;;;;;5092042;28;20048;-63
2021/08/31 15:19:12;;;;;;;14.25;4.05;;;;;;;;;;5092259;28;20115;-64
2021/08/31 15:21:57;;;;;;;9.63;3.60;;;;;;;;;;5092071;28;20051;-64
2021/08/31 15:24:42;;;;;;;15.73;4.03;;;;;;;;;;5080094;28;20048;-64
2021/08/31 15:27:35;;;;;;;13.65;3.60;;;;;;;;;;5079405;28;20051;-64
2021/08/31 15:30:20;;;;;;;11.93;3.60;;;;;;;;;;5070853;28;20505;-63
2021/08/31 15:33:05;;;;;;;13.13;3.60;;;;;;;;;;5082005;28;20459;-64
2021/08/31 15:35:50;;;;;;;16.48;4.55;;;;;;;;;;5080580;28;20050;-65
2021/08/31 15:38:35;;;;;;;13.65;4.88;;;;;;;;;;5081580;28;20073;-64
2021/08/31 15:41:21;;;;;;;12.45;3.85;;;;;;;;;;5085229;28;20458;-64
2021/08/31 15:44:07;;;;;;;12.63;4.15;;;;;;;;;;5083622;28;20045;-65
2021/08/31 15:46:52;;;;;;;13.80;4.03;;;;;;;;;;5090678;28;20079;-65
2021/08/31 15:49:38;;;;;;;11.82;4.53;;;;;;;;;;5081216;28;20395;-64
2021/08/31 15:52:23;;;;;;;13.45;4.63;;;;;;;;;;5092459;28;20047;-65
2021/08/31 15:55:09;;;;;;;15.23;4.95;;;;;;;;;;5076590;28;20052;-65
2021/08/31 15:57:55;;;;;;;12.70;4.13;;;;;;;;;;5089975;28;20048;-65
2021/08/31 16:00:40;;;;;;;13.45;3.85;;;;;;;;;;5076288;28;20083;-64
2021/08/31 16:03:25;;;;;;;12.73;4.50;;;;;;;;;;5081037;28;20048;-64
2021/08/31 16:06:11;;;;;;;17.25;4.88;;;;;;;;;;5081979;28;20060;-64
2021/08/31 16:08:56;;;;;;;17.90;3.75;;;;;;;;;;5079064;28;20044;-64
2021/08/31 16:11:41;;;;;;;11.52;4.03;;;;;;;;;;5083635;28;20041;-64
2021/08/31 16:14:27;;;;;;;13.93;4.70;;;;;;;;;;5090837;28;20048;-65
2021/08/31 16:17:14;;;;;;;23.45;5.82;;;;;;;;;;5076393;28;20119;-64